sensor_id;sensor_type;location;lat;lon;timestamp;P1;durP1;ratioP1;P2;durP2;ratioP2
69401;SDS011;56589;51.992;5.924;2022-12-18T00:02:19;58.70;;;24.92;;
69401;SDS011;56589;51.992;5.924;2022-12-18T00:04:45;59.53;;;24.08;;
69401;SDS011;56589;51.992;5.924;2022-12-18T00:07:11;51.13;;;21.42;;
69401;SDS011;56589;51.992;5.924;2022-12-18T00:40:51;54.63;;;23.50;;
69401;SDS011;56589;51.992;5.924;2022-12-18T00:43:17;50.08;;;21.98;;
69401;SDS011;56589;51.992;5.924;2022-12-18T00:45:43;52.40;;;21.88;;
69401;SDS011;56589;51.992;5.924;2022-12-18T00:48:10;52.00;;;23.58;;
69401;SDS011;56589;51.992;5.924;2022-12-18T00:58:25;49.03;;;22.23;;
69401;SDS011;56589;51.992;5.924;2022-12-18T01:00:52;47.28;;;20.33;;
69401;SDS011;56589;51.992;5.924;2022-12-18T01:03:19;41.33;;;19.42;;
69401;SDS011;56589;51.992;5.924;2022-12-18T01:05:45;51.72;;;22.35;;
69401;SDS011;56589;51.992;5.924;2022-12-18T01:08:10;51.22;;;21.58;;
69401;SDS011;56589;51.992;5.924;2022-12-18T01:10:37;47.20;;;21.17;;
69401;SDS011;56589;51.992;5.924;2022-12-18T01:13:05;48.22;;;22.58;;
69401;SDS011;56589;51.992;5.924;2022-12-18T01:15:34;44.17;;;21.05;;
69401;SDS011;56589;51.992;5.924;2022-12-18T01:18:00;49.78;;;20.55;;
69401;SDS011;56589;51.992;5.924;2022-12-18T01:20:26;48.15;;;20.55;;
69401;SDS011;56589;51.992;5.924;2022-12-18T01:22:52;46.03;;;20.83;;
69401;SDS011;56589;51.992;5.924;2022-12-18T01:25:17;45.08;;;19.75;;
69401;SDS011;56589;51.992;5.924;2022-12-18T01:27:43;44.40;;;20.77;;
69401;SDS011;56589;51.992;5.924;2022-12-18T01:30:10;51.17;;;20.85;;
69401;SDS011;56589;51.992;5.924;2022-12-18T01:32:39;46.67;;;20.58;;
69401;SDS011;56589;51.992;5.924;2022-12-18T01:35:06;44.80;;;19.52;;
69401;SDS011;56589;51.992;5.924;2022-12-18T01:37:33;44.80;;;21.33;;
69401;SDS011;56589;51.992;5.924;2022-12-18T01:40:01;45.05;;;20.83;;
69401;SDS011;56589;51.992;5.924;2022-12-18T01:42:27;45.75;;;20.83;;
69401;SDS011;56589;51.992;5.924;2022-12-18T01:44:56;50.30;;;22.52;;
69401;SDS011;56589;51.992;5.924;2022-12-18T01:47:54;44.20;;;19.90;;
69401;SDS011;56589;51.992;5.924;2022-12-18T01:50:27;52.35;;;21.45;;
69401;SDS011;56589;51.992;5.924;2022-12-18T02:24:09;39.97;;;19.30;;
69401;SDS011;56589;51.992;5.924;2022-12-18T02:26:58;38.78;;;17.17;;
69401;SDS011;56589;51.992;5.924;2022-12-18T02:29:29;40.00;;;17.35;;
69401;SDS011;56589;51.992;5.924;2022-12-18T02:32:04;40.03;;;19.27;;
69401;SDS011;56589;51.992;5.924;2022-12-18T02:34:37;49.40;;;18.85;;
69401;SDS011;56589;51.992;5.924;2022-12-18T02:37:05;39.80;;;17.63;;
69401;SDS011;56589;51.992;5.924;2022-12-18T02:39:38;41.30;;;18.15;;
69401;SDS011;56589;51.992;5.924;2022-12-18T02:42:11;39.63;;;16.88;;
69401;SDS011;56589;51.992;5.924;2022-12-18T02:44:41;40.60;;;18.70;;
69401;SDS011;56589;51.992;5.924;2022-12-18T02:47:08;45.95;;;19.50;;
69401;SDS011;56589;51.992;5.924;2022-12-18T02:49:40;40.70;;;17.73;;
69401;SDS011;56589;51.992;5.924;2022-12-18T02:52:20;41.42;;;17.80;;
69401;SDS011;56589;51.992;5.924;2022-12-18T02:54:58;40.05;;;17.35;;
69401;SDS011;56589;51.992;5.924;2022-12-18T02:57:42;38.72;;;17.23;;
69401;SDS011;56589;51.992;5.924;2022-12-18T03:00:19;44.67;;;17.98;;
69401;SDS011;56589;51.992;5.924;2022-12-18T03:02:51;44.95;;;17.13;;
69401;SDS011;56589;51.992;5.924;2022-12-18T03:05:25;36.72;;;16.95;;
69401;SDS011;56589;51.992;5.924;2022-12-18T03:07:59;38.05;;;16.20;;
69401;SDS011;56589;51.992;5.924;2022-12-18T03:10:32;41.10;;;17.98;;
69401;SDS011;56589;51.992;5.924;2022-12-18T03:13:10;44.78;;;17.10;;
69401;SDS011;56589;51.992;5.924;2022-12-18T03:15:46;33.30;;;15.82;;
69401;SDS011;56589;51.992;5.924;2022-12-18T03:18:16;37.05;;;16.85;;
69401;SDS011;56589;51.992;5.924;2022-12-18T03:20:49;37.30;;;17.17;;
69401;SDS011;56589;51.992;5.924;2022-12-18T03:23:21;38.43;;;17.23;;
69401;SDS011;56589;51.992;5.924;2022-12-18T03:25:56;38.95;;;16.40;;
69401;SDS011;56589;51.992;5.924;2022-12-18T03:28:30;39.85;;;17.85;;
69401;SDS011;56589;51.992;5.924;2022-12-18T03:31:03;35.40;;;15.27;;
69401;SDS011;56589;51.992;5.924;2022-12-18T03:33:34;34.38;;;15.57;;
69401;SDS011;56589;51.992;5.924;2022-12-18T03:36:06;38.80;;;16.25;;
69401;SDS011;56589;51.992;5.924;2022-12-18T03:38:33;35.60;;;15.30;;
69401;SDS011;56589;51.992;5.924;2022-12-18T03:40:59;34.60;;;15.43;;
69401;SDS011;56589;51.992;5.924;2022-12-18T03:43:43;32.92;;;14.80;;
69401;SDS011;56589;51.992;5.924;2022-12-18T03:46:24;32.65;;;14.50;;
69401;SDS011;56589;51.992;5.924;2022-12-18T03:48:58;33.17;;;14.50;;
69401;SDS011;56589;51.992;5.924;2022-12-18T03:51:36;28.17;;;13.70;;
69401;SDS011;56589;51.992;5.924;2022-12-18T03:54:13;30.35;;;13.73;;
69401;SDS011;56589;51.992;5.924;2022-12-18T03:56:42;32.13;;;13.90;;
69401;SDS011;56589;51.992;5.924;2022-12-18T03:59:19;32.63;;;13.82;;
69401;SDS011;56589;51.992;5.924;2022-12-18T04:01:49;31.98;;;14.23;;
69401;SDS011;56589;51.992;5.924;2022-12-18T04:04:20;30.50;;;13.00;;
69401;SDS011;56589;51.992;5.924;2022-12-18T04:06:52;31.42;;;14.07;;
69401;SDS011;56589;51.992;5.924;2022-12-18T04:09:20;31.75;;;13.73;;
69401;SDS011;56589;51.992;5.924;2022-12-18T04:11:48;29.05;;;13.35;;
69401;SDS011;56589;51.992;5.924;2022-12-18T04:14:14;26.52;;;13.10;;
69401;SDS011;56589;51.992;5.924;2022-12-18T04:16:43;31.27;;;14.05;;
69401;SDS011;56589;51.992;5.924;2022-12-18T04:19:09;27.70;;;12.68;;
69401;SDS011;56589;51.992;5.924;2022-12-18T04:21:35;31.40;;;12.85;;
69401;SDS011;56589;51.992;5.924;2022-12-18T04:24:00;26.08;;;11.93;;
69401;SDS011;56589;51.992;5.924;2022-12-18T04:26:26;24.80;;;11.75;;
69401;SDS011;56589;51.992;5.924;2022-12-18T04:28:52;29.85;;;11.95;;
69401;SDS011;56589;51.992;5.924;2022-12-18T04:31:18;25.80;;;12.18;;
69401;SDS011;56589;51.992;5.924;2022-12-18T04:33:47;27.10;;;11.63;;
69401;SDS011;56589;51.992;5.924;2022-12-18T04:36:12;26.02;;;11.63;;
69401;SDS011;56589;51.992;5.924;2022-12-18T04:38:41;24.23;;;11.15;;
69401;SDS011;56589;51.992;5.924;2022-12-18T04:41:08;21.05;;;10.82;;
69401;SDS011;56589;51.992;5.924;2022-12-18T04:43:34;28.35;;;12.18;;
69401;SDS011;56589;51.992;5.924;2022-12-18T04:46:03;22.35;;;11.73;;
69401;SDS011;56589;51.992;5.924;2022-12-18T04:48:31;23.58;;;11.82;;
69401;SDS011;56589;51.992;5.924;2022-12-18T04:51:00;27.85;;;11.27;;
69401;SDS011;56589;51.992;5.924;2022-12-18T04:53:26;22.45;;;11.50;;
69401;SDS011;56589;51.992;5.924;2022-12-18T04:56:01;21.45;;;11.15;;
69401;SDS011;56589;51.992;5.924;2022-12-18T04:58:30;25.35;;;10.40;;
69401;SDS011;56589;51.992;5.924;2022-12-18T05:00:56;19.98;;;10.38;;
69401;SDS011;56589;51.992;5.924;2022-12-18T05:03:21;22.00;;;10.68;;
69401;SDS011;56589;51.992;5.924;2022-12-18T05:05:52;19.67;;;10.73;;
69401;SDS011;56589;51.992;5.924;2022-12-18T05:08:20;23.65;;;10.68;;
69401;SDS011;56589;51.992;5.924;2022-12-18T05:10:47;24.70;;;11.20;;
69401;SDS011;56589;51.992;5.924;2022-12-18T05:13:13;23.05;;;11.20;;
69401;SDS011;56589;51.992;5.924;2022-12-18T05:15:38;23.77;;;11.48;;
69401;SDS011;56589;51.992;5.924;2022-12-18T05:18:04;22.58;;;11.32;;
69401;SDS011;56589;51.992;5.924;2022-12-18T05:20:30;20.02;;;10.27;;
69401;SDS011;56589;51.992;5.924;2022-12-18T05:22:57;19.23;;;9.93;;
69401;SDS011;56589;51.992;5.924;2022-12-18T05:25:25;22.45;;;10.05;;
69401;SDS011;56589;51.992;5.924;2022-12-18T05:27:51;24.35;;;11.60;;
69401;SDS011;56589;51.992;5.924;2022-12-18T05:30:19;22.88;;;10.80;;
69401;SDS011;56589;51.992;5.924;2022-12-18T05:32:45;21.92;;;11.05;;
69401;SDS011;56589;51.992;5.924;2022-12-18T05:35:11;21.17;;;10.60;;
69401;SDS011;56589;51.992;5.924;2022-12-18T05:37:36;21.77;;;11.02;;
69401;SDS011;56589;51.992;5.924;2022-12-18T05:40:03;22.58;;;10.70;;
69401;SDS011;56589;51.992;5.924;2022-12-18T05:42:34;20.73;;;10.40;;
69401;SDS011;56589;51.992;5.924;2022-12-18T05:45:00;21.20;;;10.50;;
69401;SDS011;56589;51.992;5.924;2022-12-18T05:47:26;19.90;;;10.68;;
69401;SDS011;56589;51.992;5.924;2022-12-18T05:49:52;20.83;;;10.52;;
69401;SDS011;56589;51.992;5.924;2022-12-18T05:52:19;19.60;;;9.98;;
69401;SDS011;56589;51.992;5.924;2022-12-18T05:54:45;23.52;;;11.25;;
69401;SDS011;56589;51.992;5.924;2022-12-18T05:57:11;24.85;;;11.02;;
69401;SDS011;56589;51.992;5.924;2022-12-18T05:59:39;19.33;;;10.48;;
69401;SDS011;56589;51.992;5.924;2022-12-18T06:02:05;21.35;;;9.82;;
69401;SDS011;56589;51.992;5.924;2022-12-18T06:04:31;22.23;;;10.43;;
69401;SDS011;56589;51.992;5.924;2022-12-18T06:06:57;20.67;;;10.20;;
69401;SDS011;56589;51.992;5.924;2022-12-18T06:09:23;24.05;;;11.52;;
69401;SDS011;56589;51.992;5.924;2022-12-18T06:11:51;21.42;;;11.25;;
69401;SDS011;56589;51.992;5.924;2022-12-18T06:14:17;20.65;;;10.73;;
69401;SDS011;56589;51.992;5.924;2022-12-18T06:16:46;19.00;;;10.23;;
69401;SDS011;56589;51.992;5.924;2022-12-18T06:19:14;21.70;;;10.90;;
69401;SDS011;56589;51.992;5.924;2022-12-18T06:21:42;22.23;;;10.13;;
69401;SDS011;56589;51.992;5.924;2022-12-18T06:24:08;21.20;;;10.10;;
69401;SDS011;56589;51.992;5.924;2022-12-18T06:26:36;19.63;;;10.88;;
69401;SDS011;56589;51.992;5.924;2022-12-18T06:29:03;20.20;;;10.30;;
69401;SDS011;56589;51.992;5.924;2022-12-18T06:31:29;20.88;;;9.93;;
69401;SDS011;56589;51.992;5.924;2022-12-18T06:33:58;19.00;;;9.40;;
69401;SDS011;56589;51.992;5.924;2022-12-18T06:36:24;20.48;;;9.85;;
69401;SDS011;56589;51.992;5.924;2022-12-18T06:38:50;19.90;;;9.80;;
69401;SDS011;56589;51.992;5.924;2022-12-18T06:41:16;21.48;;;11.13;;
69401;SDS011;56589;51.992;5.924;2022-12-18T06:43:45;18.23;;;9.90;;
69401;SDS011;56589;51.992;5.924;2022-12-18T06:46:11;21.98;;;10.63;;
69401;SDS011;56589;51.992;5.924;2022-12-18T06:48:38;20.33;;;10.25;;
69401;SDS011;56589;51.992;5.924;2022-12-18T06:51:07;18.40;;;10.18;;
69401;SDS011;56589;51.992;5.924;2022-12-18T06:53:33;19.33;;;9.68;;
69401;SDS011;56589;51.992;5.924;2022-12-18T06:56:00;20.58;;;10.30;;
69401;SDS011;56589;51.992;5.924;2022-12-18T06:58:26;23.77;;;10.70;;
69401;SDS011;56589;51.992;5.924;2022-12-18T07:00:52;18.10;;;9.73;;
69401;SDS011;56589;51.992;5.924;2022-12-18T07:03:18;23.95;;;10.50;;
69401;SDS011;56589;51.992;5.924;2022-12-18T07:05:44;21.52;;;10.40;;
69401;SDS011;56589;51.992;5.924;2022-12-18T07:08:14;20.38;;;10.20;;
69401;SDS011;56589;51.992;5.924;2022-12-18T07:10:41;20.88;;;10.32;;
69401;SDS011;56589;51.992;5.924;2022-12-18T07:13:08;21.83;;;11.20;;
69401;SDS011;56589;51.992;5.924;2022-12-18T07:15:34;22.30;;;10.45;;
69401;SDS011;56589;51.992;5.924;2022-12-18T07:18:00;20.92;;;9.68;;
69401;SDS011;56589;51.992;5.924;2022-12-18T07:20:26;19.92;;;9.80;;
69401;SDS011;56589;51.992;5.924;2022-12-18T07:22:52;21.13;;;11.32;;
69401;SDS011;56589;51.992;5.924;2022-12-18T07:25:20;21.88;;;9.27;;
69401;SDS011;56589;51.992;5.924;2022-12-18T07:27:46;18.50;;;9.27;;
69401;SDS011;56589;51.992;5.924;2022-12-18T07:30:12;19.88;;;10.52;;
69401;SDS011;56589;51.992;5.924;2022-12-18T07:32:38;18.85;;;9.13;;
69401;SDS011;56589;51.992;5.924;2022-12-18T07:35:04;16.27;;;8.88;;
69401;SDS011;56589;51.992;5.924;2022-12-18T07:37:31;17.73;;;9.30;;
69401;SDS011;56589;51.992;5.924;2022-12-18T07:39:56;17.35;;;9.77;;
69401;SDS011;56589;51.992;5.924;2022-12-18T07:42:25;16.15;;;9.00;;
69401;SDS011;56589;51.992;5.924;2022-12-18T07:44:51;17.92;;;8.85;;
69401;SDS011;56589;51.992;5.924;2022-12-18T07:47:16;19.50;;;9.30;;
69401;SDS011;56589;51.992;5.924;2022-12-18T07:49:42;17.25;;;9.57;;
69401;SDS011;56589;51.992;5.924;2022-12-18T07:52:08;16.38;;;9.20;;
69401;SDS011;56589;51.992;5.924;2022-12-18T07:54:34;16.35;;;9.50;;
69401;SDS011;56589;51.992;5.924;2022-12-18T07:57:00;19.45;;;8.63;;
69401;SDS011;56589;51.992;5.924;2022-12-18T07:59:28;20.25;;;10.02;;
69401;SDS011;56589;51.992;5.924;2022-12-18T08:01:54;17.42;;;8.73;;
69401;SDS011;56589;51.992;5.924;2022-12-18T08:04:20;19.15;;;9.55;;
69401;SDS011;56589;51.992;5.924;2022-12-18T08:06:46;20.65;;;9.25;;
69401;SDS011;56589;51.992;5.924;2022-12-18T08:09:12;17.73;;;9.50;;
69401;SDS011;56589;51.992;5.924;2022-12-18T08:11:38;18.58;;;9.65;;
69401;SDS011;56589;51.992;5.924;2022-12-18T08:14:04;17.92;;;9.18;;
69401;SDS011;56589;51.992;5.924;2022-12-18T08:16:32;18.50;;;9.27;;
69401;SDS011;56589;51.992;5.924;2022-12-18T08:18:58;17.83;;;9.23;;
69401;SDS011;56589;51.992;5.924;2022-12-18T08:21:25;17.05;;;8.77;;
69401;SDS011;56589;51.992;5.924;2022-12-18T08:23:54;18.75;;;9.65;;
69401;SDS011;56589;51.992;5.924;2022-12-18T08:26:21;19.13;;;9.25;;
69401;SDS011;56589;51.992;5.924;2022-12-18T08:28:52;17.70;;;8.93;;
69401;SDS011;56589;51.992;5.924;2022-12-18T08:31:19;18.02;;;9.60;;
69401;SDS011;56589;51.992;5.924;2022-12-18T08:33:49;16.77;;;8.80;;
69401;SDS011;56589;51.992;5.924;2022-12-18T08:36:16;19.63;;;10.00;;
69401;SDS011;56589;51.992;5.924;2022-12-18T08:38:42;17.17;;;8.63;;
69401;SDS011;56589;51.992;5.924;2022-12-18T08:41:09;16.75;;;8.73;;
69401;SDS011;56589;51.992;5.924;2022-12-18T08:43:39;15.40;;;8.90;;
69401;SDS011;56589;51.992;5.924;2022-12-18T08:46:06;15.95;;;8.65;;
69401;SDS011;56589;51.992;5.924;2022-12-18T08:48:32;20.08;;;9.95;;
69401;SDS011;56589;51.992;5.924;2022-12-18T08:51:00;15.65;;;8.38;;
69401;SDS011;56589;51.992;5.924;2022-12-18T08:53:26;14.00;;;8.00;;
69401;SDS011;56589;51.992;5.924;2022-12-18T08:55:52;15.82;;;8.52;;
69401;SDS011;56589;51.992;5.924;2022-12-18T08:58:19;16.38;;;8.48;;
69401;SDS011;56589;51.992;5.924;2022-12-18T09:00:45;19.25;;;8.52;;
69401;SDS011;56589;51.992;5.924;2022-12-18T09:03:11;18.80;;;9.38;;
69401;SDS011;56589;51.992;5.924;2022-12-18T09:05:38;16.88;;;8.75;;
69401;SDS011;56589;51.992;5.924;2022-12-18T09:08:07;16.67;;;7.72;;
69401;SDS011;56589;51.992;5.924;2022-12-18T09:10:33;15.38;;;7.63;;
69401;SDS011;56589;51.992;5.924;2022-12-18T09:13:06;18.92;;;8.65;;
69401;SDS011;56589;51.992;5.924;2022-12-18T09:15:31;16.75;;;8.65;;
69401;SDS011;56589;51.992;5.924;2022-12-18T09:17:57;16.30;;;8.18;;
69401;SDS011;56589;51.992;5.924;2022-12-18T09:20:23;14.63;;;7.57;;
69401;SDS011;56589;51.992;5.924;2022-12-18T09:22:51;15.90;;;7.22;;
69401;SDS011;56589;51.992;5.924;2022-12-18T09:25:20;15.52;;;7.35;;
69401;SDS011;56589;51.992;5.924;2022-12-18T09:27:46;11.55;;;6.97;;
69401;SDS011;56589;51.992;5.924;2022-12-18T09:30:13;11.25;;;6.40;;
69401;SDS011;56589;51.992;5.924;2022-12-18T09:32:39;11.98;;;6.85;;
69401;SDS011;56589;51.992;5.924;2022-12-18T09:35:05;15.50;;;7.28;;
69401;SDS011;56589;51.992;5.924;2022-12-18T09:37:31;14.00;;;7.65;;
69401;SDS011;56589;51.992;5.924;2022-12-18T09:39:57;12.65;;;6.88;;
69401;SDS011;56589;51.992;5.924;2022-12-18T09:42:25;11.93;;;6.40;;
69401;SDS011;56589;51.992;5.924;2022-12-18T09:44:52;14.85;;;7.70;;
69401;SDS011;56589;51.992;5.924;2022-12-18T09:47:20;13.48;;;7.35;;
69401;SDS011;56589;51.992;5.924;2022-12-18T09:49:53;14.02;;;7.82;;
69401;SDS011;56589;51.992;5.924;2022-12-18T09:52:25;12.20;;;6.72;;
69401;SDS011;56589;51.992;5.924;2022-12-18T09:54:59;17.30;;;7.53;;
69401;SDS011;56589;51.992;5.924;2022-12-18T09:57:37;12.48;;;6.47;;
69401;SDS011;56589;51.992;5.924;2022-12-18T10:00:15;12.30;;;6.72;;
69401;SDS011;56589;51.992;5.924;2022-12-18T10:02:44;13.90;;;7.15;;
69401;SDS011;56589;51.992;5.924;2022-12-18T10:05:11;12.60;;;6.75;;
69401;SDS011;56589;51.992;5.924;2022-12-18T10:07:47;14.18;;;7.20;;
69401;SDS011;56589;51.992;5.924;2022-12-18T10:10:27;12.73;;;6.45;;
69401;SDS011;56589;51.992;5.924;2022-12-18T10:13:10;13.13;;;7.72;;
69401;SDS011;56589;51.992;5.924;2022-12-18T10:15:51;15.35;;;6.88;;
69401;SDS011;56589;51.992;5.924;2022-12-18T10:18:32;16.02;;;7.78;;
69401;SDS011;56589;51.992;5.924;2022-12-18T10:21:18;14.00;;;7.55;;
69401;SDS011;56589;51.992;5.924;2022-12-18T10:23:50;14.63;;;6.45;;
69401;SDS011;56589;51.992;5.924;2022-12-18T10:26:35;13.15;;;7.13;;
69401;SDS011;56589;51.992;5.924;2022-12-18T10:29:03;12.60;;;6.43;;
69401;SDS011;56589;51.992;5.924;2022-12-18T10:31:36;11.93;;;6.60;;
69401;SDS011;56589;51.992;5.924;2022-12-18T10:34:02;13.85;;;7.50;;
69401;SDS011;56589;51.992;5.924;2022-12-18T10:36:28;13.77;;;7.55;;
69401;SDS011;56589;51.992;5.924;2022-12-18T10:38:58;13.82;;;7.70;;
69401;SDS011;56589;51.992;5.924;2022-12-18T10:41:42;15.00;;;7.60;;
69401;SDS011;56589;51.992;5.924;2022-12-18T10:44:14;13.27;;;7.30;;
69401;SDS011;56589;51.992;5.924;2022-12-18T10:46:44;13.23;;;7.63;;
69401;SDS011;56589;51.992;5.924;2022-12-18T10:49:22;14.68;;;6.75;;
69401;SDS011;56589;51.992;5.924;2022-12-18T10:51:52;14.45;;;7.05;;
69401;SDS011;56589;51.992;5.924;2022-12-18T10:54:32;13.00;;;6.30;;
69401;SDS011;56589;51.992;5.924;2022-12-18T10:57:13;13.15;;;7.15;;
69401;SDS011;56589;51.992;5.924;2022-12-18T10:59:52;15.82;;;7.65;;
69401;SDS011;56589;51.992;5.924;2022-12-18T11:02:25;12.73;;;6.75;;
69401;SDS011;56589;51.992;5.924;2022-12-18T11:04:58;13.23;;;7.40;;
69401;SDS011;56589;51.992;5.924;2022-12-18T11:07:24;12.40;;;6.90;;
69401;SDS011;56589;51.992;5.924;2022-12-18T11:09:59;11.60;;;6.75;;
69401;SDS011;56589;51.992;5.924;2022-12-18T11:12:27;14.60;;;7.28;;
69401;SDS011;56589;51.992;5.924;2022-12-18T11:14:59;15.18;;;7.90;;
69401;SDS011;56589;51.992;5.924;2022-12-18T11:17:28;12.35;;;7.00;;
69401;SDS011;56589;51.992;5.924;2022-12-18T11:19:58;17.05;;;7.90;;
69401;SDS011;56589;51.992;5.924;2022-12-18T11:22:26;16.15;;;7.13;;
69401;SDS011;56589;51.992;5.924;2022-12-18T11:24:56;15.48;;;8.13;;
69401;SDS011;56589;51.992;5.924;2022-12-18T11:27:27;14.32;;;6.70;;
69401;SDS011;56589;51.992;5.924;2022-12-18T11:30:07;11.48;;;6.57;;
69401;SDS011;56589;51.992;5.924;2022-12-18T11:32:46;14.00;;;6.90;;
69401;SDS011;56589;51.992;5.924;2022-12-18T11:35:18;16.23;;;8.15;;
69401;SDS011;56589;51.992;5.924;2022-12-18T11:37:53;16.15;;;7.95;;
69401;SDS011;56589;51.992;5.924;2022-12-18T11:40:29;15.00;;;7.82;;
69401;SDS011;56589;51.992;5.924;2022-12-18T11:43:02;11.63;;;6.97;;
69401;SDS011;56589;51.992;5.924;2022-12-18T11:45:40;13.75;;;7.30;;
69401;SDS011;56589;51.992;5.924;2022-12-18T11:48:17;16.23;;;7.97;;
69401;SDS011;56589;51.992;5.924;2022-12-18T11:50:49;12.73;;;7.03;;
69401;SDS011;56589;51.992;5.924;2022-12-18T11:53:17;14.80;;;8.10;;
69401;SDS011;56589;51.992;5.924;2022-12-18T11:55:47;18.67;;;7.93;;
69401;SDS011;56589;51.992;5.924;2022-12-18T11:58:35;17.80;;;8.75;;
69401;SDS011;56589;51.992;5.924;2022-12-18T12:01:17;12.90;;;6.82;;
69401;SDS011;56589;51.992;5.924;2022-12-18T12:04:04;14.35;;;7.32;;
69401;SDS011;56589;51.992;5.924;2022-12-18T12:07:02;13.68;;;7.07;;
69401;SDS011;56589;51.992;5.924;2022-12-18T12:09:47;10.80;;;7.25;;
69401;SDS011;56589;51.992;5.924;2022-12-18T12:12:32;14.02;;;7.63;;
69401;SDS011;56589;51.992;5.924;2022-12-18T12:15:15;13.43;;;7.07;;
69401;SDS011;56589;51.992;5.924;2022-12-18T12:18:01;16.55;;;7.45;;
69401;SDS011;56589;51.992;5.924;2022-12-18T12:20:43;16.15;;;8.18;;
69401;SDS011;56589;51.992;5.924;2022-12-18T12:23:21;12.82;;;7.25;;
69401;SDS011;56589;51.992;5.924;2022-12-18T12:25:58;16.27;;;7.80;;
69401;SDS011;56589;51.992;5.924;2022-12-18T12:28:36;15.77;;;7.80;;
69401;SDS011;56589;51.992;5.924;2022-12-18T12:31:43;15.82;;;7.88;;
69401;SDS011;56589;51.992;5.924;2022-12-18T12:34:42;17.77;;;8.73;;
69401;SDS011;56589;51.992;5.924;2022-12-18T12:37:29;17.00;;;8.35;;
69401;SDS011;56589;51.992;5.924;2022-12-18T12:40:10;16.15;;;8.23;;
69401;SDS011;56589;51.992;5.924;2022-12-18T12:42:43;15.73;;;7.25;;
69401;SDS011;56589;51.992;5.924;2022-12-18T12:45:20;15.68;;;8.00;;
69401;SDS011;56589;51.992;5.924;2022-12-18T12:47:56;16.55;;;8.30;;
69401;SDS011;56589;51.992;5.924;2022-12-18T12:50:29;15.07;;;8.30;;
69401;SDS011;56589;51.992;5.924;2022-12-18T12:53:03;13.48;;;7.32;;
69401;SDS011;56589;51.992;5.924;2022-12-18T12:55:37;14.75;;;7.95;;
69401;SDS011;56589;51.992;5.924;2022-12-18T12:58:06;14.80;;;7.70;;
69401;SDS011;56589;51.992;5.924;2022-12-18T13:00:54;14.57;;;7.38;;
69401;SDS011;56589;51.992;5.924;2022-12-18T13:03:35;13.80;;;7.28;;
69401;SDS011;56589;51.992;5.924;2022-12-18T13:06:19;15.70;;;8.50;;
69401;SDS011;56589;51.992;5.924;2022-12-18T13:08:59;18.08;;;7.45;;
69401;SDS011;56589;51.992;5.924;2022-12-18T13:11:35;14.82;;;6.75;;
69401;SDS011;56589;51.992;5.924;2022-12-18T13:14:04;14.38;;;8.00;;
69401;SDS011;56589;51.992;5.924;2022-12-18T13:16:29;16.63;;;7.90;;
69401;SDS011;56589;51.992;5.924;2022-12-18T13:18:56;15.10;;;7.70;;
69401;SDS011;56589;51.992;5.924;2022-12-18T13:21:27;14.07;;;7.07;;
69401;SDS011;56589;51.992;5.924;2022-12-18T13:24:08;15.88;;;8.80;;
69401;SDS011;56589;51.992;5.924;2022-12-18T13:26:47;12.90;;;7.18;;
69401;SDS011;56589;51.992;5.924;2022-12-18T13:29:15;15.13;;;8.65;;
69401;SDS011;56589;51.992;5.924;2022-12-18T13:32:20;14.02;;;7.53;;
69401;SDS011;56589;51.992;5.924;2022-12-18T13:34:49;18.23;;;8.10;;
69401;SDS011;56589;51.992;5.924;2022-12-18T13:38:18;14.07;;;7.72;;
69401;SDS011;56589;51.992;5.924;2022-12-18T13:40:54;13.68;;;8.23;;
69401;SDS011;56589;51.992;5.924;2022-12-18T13:46:17;14.30;;;7.25;;
69401;SDS011;56589;51.992;5.924;2022-12-18T13:48:52;13.15;;;7.13;;
69401;SDS011;56589;51.992;5.924;2022-12-18T13:51:23;14.52;;;7.97;;
69401;SDS011;56589;51.992;5.924;2022-12-18T13:53:54;14.20;;;8.02;;
69401;SDS011;56589;51.992;5.924;2022-12-18T13:56:25;14.23;;;8.27;;
69401;SDS011;56589;51.992;5.924;2022-12-18T13:59:03;18.08;;;9.50;;
69401;SDS011;56589;51.992;5.924;2022-12-18T14:01:41;15.35;;;8.10;;
69401;SDS011;56589;51.992;5.924;2022-12-18T14:04:09;18.23;;;8.68;;
69401;SDS011;56589;51.992;5.924;2022-12-18T14:06:37;40.72;;;21.48;;
69401;SDS011;56589;51.992;5.924;2022-12-18T14:09:08;16.58;;;10.35;;
69401;SDS011;56589;51.992;5.924;2022-12-18T14:11:40;15.57;;;8.48;;
69401;SDS011;56589;51.992;5.924;2022-12-18T14:14:13;17.15;;;9.40;;
69401;SDS011;56589;51.992;5.924;2022-12-18T14:16:42;31.55;;;16.77;;
69401;SDS011;56589;51.992;5.924;2022-12-18T14:19:09;73.97;;;32.97;;
69401;SDS011;56589;51.992;5.924;2022-12-18T14:21:40;19.67;;;9.77;;
69401;SDS011;56589;51.992;5.924;2022-12-18T14:24:17;18.08;;;10.27;;
69401;SDS011;56589;51.992;5.924;2022-12-18T14:26:46;19.42;;;10.45;;
69401;SDS011;56589;51.992;5.924;2022-12-18T14:29:21;20.33;;;11.70;;
69401;SDS011;56589;51.992;5.924;2022-12-18T14:32:05;20.90;;;10.23;;
69401;SDS011;56589;51.992;5.924;2022-12-18T14:34:36;18.10;;;8.30;;
69401;SDS011;56589;51.992;5.924;2022-12-18T14:37:02;18.23;;;8.63;;
69401;SDS011;56589;51.992;5.924;2022-12-18T14:39:32;17.48;;;8.68;;
69401;SDS011;56589;51.992;5.924;2022-12-18T14:41:58;17.42;;;8.75;;
69401;SDS011;56589;51.992;5.924;2022-12-18T14:44:24;18.70;;;9.93;;
69401;SDS011;56589;51.992;5.924;2022-12-18T14:46:50;17.52;;;9.38;;
69401;SDS011;56589;51.992;5.924;2022-12-18T14:49:18;14.48;;;8.50;;
69401;SDS011;56589;51.992;5.924;2022-12-18T14:51:52;14.80;;;8.27;;
69401;SDS011;56589;51.992;5.924;2022-12-18T14:54:21;14.70;;;9.00;;
69401;SDS011;56589;51.992;5.924;2022-12-18T14:56:54;16.92;;;8.98;;
69401;SDS011;56589;51.992;5.924;2022-12-18T14:59:26;16.48;;;9.18;;
69401;SDS011;56589;51.992;5.924;2022-12-18T15:01:57;16.13;;;8.77;;
69401;SDS011;56589;51.992;5.924;2022-12-18T15:04:29;18.63;;;9.27;;
69401;SDS011;56589;51.992;5.924;2022-12-18T15:07:05;21.58;;;9.40;;
69401;SDS011;56589;51.992;5.924;2022-12-18T15:09:38;20.15;;;9.02;;
69401;SDS011;56589;51.992;5.924;2022-12-18T15:12:18;18.10;;;9.60;;
69401;SDS011;56589;51.992;5.924;2022-12-18T15:14:53;16.55;;;8.05;;
69401;SDS011;56589;51.992;5.924;2022-12-18T15:17:19;16.35;;;9.25;;
69401;SDS011;56589;51.992;5.924;2022-12-18T15:19:49;18.65;;;9.23;;
69401;SDS011;56589;51.992;5.924;2022-12-18T15:22:25;17.48;;;10.43;;
69401;SDS011;56589;51.992;5.924;2022-12-18T15:24:54;18.83;;;9.43;;
69401;SDS011;56589;51.992;5.924;2022-12-18T15:27:26;18.80;;;10.80;;
69401;SDS011;56589;51.992;5.924;2022-12-18T15:30:02;15.75;;;8.32;;
69401;SDS011;56589;51.992;5.924;2022-12-18T15:32:46;16.65;;;9.10;;
69401;SDS011;56589;51.992;5.924;2022-12-18T15:35:13;19.52;;;10.13;;
69401;SDS011;56589;51.992;5.924;2022-12-18T15:37:43;19.20;;;10.30;;
69401;SDS011;56589;51.992;5.924;2022-12-18T15:40:12;21.58;;;11.30;;
69401;SDS011;56589;51.992;5.924;2022-12-18T15:42:42;20.80;;;11.10;;
69401;SDS011;56589;51.992;5.924;2022-12-18T15:45:11;21.85;;;10.55;;
69401;SDS011;56589;51.992;5.924;2022-12-18T15:47:39;20.75;;;10.75;;
69401;SDS011;56589;51.992;5.924;2022-12-18T15:50:07;18.50;;;10.63;;
69401;SDS011;56589;51.992;5.924;2022-12-18T15:52:36;24.30;;;12.07;;
69401;SDS011;56589;51.992;5.924;2022-12-18T15:55:09;25.67;;;11.75;;
69401;SDS011;56589;51.992;5.924;2022-12-18T15:57:42;24.02;;;12.10;;
69401;SDS011;56589;51.992;5.924;2022-12-18T16:00:10;24.55;;;11.32;;
69401;SDS011;56589;51.992;5.924;2022-12-18T16:02:38;26.00;;;13.00;;
69401;SDS011;56589;51.992;5.924;2022-12-18T16:05:05;25.27;;;11.88;;